Time;durP1;ratioP1;P1;durP2;ratioP2;P2;SDS_P1;SDS_P2;PMS_P1;PMS_P2;Temp;Humidity;BMP_temperature;BMP_pressure;BME280_temperature;BME280_humidity;BME280_pressure;Samples;Min_cycle;Max_cycle;Signal;HPM_P1;HPM_P2
2023/12/14 00:01:36;;;;;;;1.48;0.88;;;5.90;99.90;;;;;;20944585;28;20083;-79
2023/12/14 00:11:39;;;;;;;;;;;5.90;99.90;;;;;;20920894;28;20049;-79
2023/12/14 00:21:40;;;;;;;1.75;0.95;;;5.90;99.90;;;;;;20946313;28;19909;-79
2023/12/14 00:31:41;;;;;;;;;;;5.90;99.90;;;;;;20945326;28;20471;-79
2023/12/14 00:41:42;;;;;;;;;;;5.90;99.90;;;;;;20918185;28;19909;-80
2023/12/14 00:51:42;;;;;;;;;;;5.90;99.90;;;;;;20920689;28;19999;-78
2023/12/14 01:01:43;;;;;;;;;;;6.00;99.90;;;;;;20934120;28;19909;-79
2023/12/14 01:11:44;;;;;;;;;;;6.00;99.90;;;;;;20923071;28;19920;-79
2023/12/14 01:21:44;;;;;;;;;;;6.00;99.90;;;;;;20942160;28;19909;-79
2023/12/14 01:31:45;;;;;;;;;;;6.00;99.90;;;;;;20899211;28;1127911;-79
2023/12/14 01:41:45;;;;;;;;;;;6.00;99.90;;;;;;20941039;28;20438;-79
2023/12/14 01:51:46;;;;;;;;;;;6.00;99.90;;;;;;20953225;28;19954;-78
2023/12/14 02:01:52;;;;;;;;;;;5.90;99.90;;;;;;20937011;28;20433;-77
2023/12/14 02:11:52;;;;;;;;;;;6.00;99.90;;;;;;20936989;28;19942;-79
2023/12/14 02:21:53;;;;;;;;;;;6.00;99.90;;;;;;20938568;28;19909;-79
2023/12/14 02:31:54;;;;;;;;;;;6.00;99.90;;;;;;20911103;28;19944;-78
2023/12/14 02:41:54;;;;;;;;;;;6.00;99.90;;;;;;20935252;28;19915;-79
2023/12/14 02:51:55;;;;;;;;;;;5.90;99.90;;;;;;20937434;28;20376;-77
2023/12/14 03:01:56;;;;;;;;;;;5.80;99.90;;;;;;20906676;28;19908;-79
2023/12/14 03:11:56;;;;;;;;;;;5.70;99.90;;;;;;20933073;28;19916;-79
2023/12/14 03:21:57;;;;;;;;;;;5.70;99.90;;;;;;20931987;28;19916;-80
2023/12/14 03:31:58;;;;;;;;;;;5.70;99.90;;;;;;20929441;28;19923;-80
2023/12/14 03:41:58;;;;;;;;;;;5.70;99.90;;;;;;20923762;28;20408;-80
2023/12/14 03:51:59;;;;;;;;;;;5.70;99.90;;;;;;20879047;28;19909;-79
2023/12/14 04:02:00;;;;;;;;;;;5.70;99.90;;;;;;20879383;28;19909;-77
2023/12/14 04:12:00;;;;;;;;;;;5.70;99.90;;;;;;20896394;28;19944;-77
2023/12/14 04:22:01;;;;;;;;;;;5.70;99.90;;;;;;20909446;28;19919;-77
2023/12/14 04:32:02;;;;;;;;;;;5.70;99.90;;;;;;20946257;28;19963;-78
2023/12/14 04:42:03;;;;;;;;;;;5.80;99.90;;;;;;20939678;28;19916;-77
2023/12/14 04:52:04;;;;;;;;;;;5.80;99.90;;;;;;20915972;28;19909;-77
2023/12/14 05:02:05;;;;;;;;;;;5.90;99.90;;;;;;20913943;28;19908;-77
2023/12/14 05:12:05;;;;;;;;;;;5.90;99.90;;;;;;20911913;28;20270;-76
2023/12/14 05:22:06;;;;;;;;;;;5.80;99.90;;;;;;20910532;28;19909;-77
2023/12/14 05:32:07;;;;;;;;;;;5.80;99.90;;;;;;20896464;28;19971;-77
2023/12/14 05:42:08;;;;;;;;;;;5.90;99.90;;;;;;20911038;28;19916;-77
2023/12/14 05:52:08;;;;;;;;;;;5.90;99.90;;;;;;20909492;28;19916;-77
2023/12/14 06:02:09;;;;;;;;;;;5.90;99.90;;;;;;20906953;28;20288;-77
2023/12/14 06:12:10;;;;;;;;;;;6.00;99.90;;;;;;20891369;28;19909;-77
2023/12/14 06:22:11;;;;;;;;;;;6.00;99.90;;;;;;20910366;28;19909;-78
2023/12/14 06:32:11;;;;;;;;;;;6.10;99.90;;;;;;20907670;28;20077;-77
2023/12/14 06:42:12;;;;;;;;;;;6.10;99.90;;;;;;20906045;28;19913;-77
2023/12/14 06:52:12;;;;;;;;;;;6.10;99.90;;;;;;20903864;28;20245;-77
2023/12/14 07:02:13;;;;;;;;;;;6.00;99.90;;;;;;20903415;28;19909;-77
2023/12/14 07:12:14;;;;;;;;;;;6.00;99.90;;;;;;20903330;28;20372;-77
2023/12/14 07:22:14;;;;;;;;;;;6.00;99.90;;;;;;20903091;28;19909;-77
2023/12/14 07:32:15;;;;;;;;;;;6.10;99.90;;;;;;20882018;28;20425;-76
2023/12/14 07:42:19;;;;;;;;;;;6.10;99.90;;;;;;20913743;28;19909;-77
2023/12/14 07:52:20;;;;;;;;;;;6.20;99.90;;;;;;20905163;28;20324;-77
2023/12/14 08:02:20;;;;;;;;;;;6.20;99.90;;;;;;20899605;28;19916;-76
2023/12/14 08:12:22;;;;;;;;;;;6.20;99.90;;;;;;20913647;28;19909;-77
2023/12/14 08:22:23;;;;;;;;;;;6.20;99.90;;;;;;20907958;28;19927;-76
2023/12/14 08:32:23;;;;;;;;;;;6.20;99.90;;;;;;20912177;28;19956;-77
2023/12/14 08:42:24;;;;;;;;;;;6.20;99.90;;;;;;20890887;28;20328;-77
2023/12/14 08:52:24;;;;;;;;;;;6.30;99.90;;;;;;20905059;28;19909;-77
2023/12/14 09:02:25;;;;;;;;;;;6.30;99.90;;;;;;20901783;28;20024;-76
2023/12/14 09:12:26;;;;;;;;;;;6.30;99.90;;;;;;20903041;28;19908;-76
2023/12/14 09:22:27;;;;;;;;;;;6.30;99.90;;;;;;20901962;28;19917;-76
2023/12/14 09:32:27;;;;;;;;;;;6.50;99.90;;;;;;20893799;28;19913;-76
2023/12/14 09:42:28;;;;;;;;;;;6.50;99.90;;;;;;20900795;28;19936;-77
2023/12/14 09:52:29;;;;;;;;;;;6.60;99.90;;;;;;20894293;28;19996;-77
2023/12/14 10:02:30;;;;;;;;;;;6.80;99.90;;;;;;20888604;28;19955;-77
2023/12/14 10:12:31;;;;;;;;;;;6.80;99.90;;;;;;20906265;28;19909;-77
2023/12/14 10:22:32;;;;;;;;;;;6.80;99.90;;;;;;20886078;28;19920;-77
2023/12/14 10:32:33;;;;;;;;;;;6.80;99.90;;;;;;20884185;28;19950;-77
2023/12/14 10:42:35;;;;;;;;;;;6.90;99.90;;;;;;20901794;28;20003;-77
2023/12/14 10:52:37;;;;;;;;;;;6.90;99.90;;;;;;20892005;28;19909;-77
2023/12/14 11:02:44;;;;;;;;;;;6.80;99.90;;;;;;20904199;28;19928;-77
2023/12/14 11:12:57;;;;;;;;;;;6.80;99.90;;;;;;20900360;28;19924;-77
2023/12/14 11:23:06;;;;;;;;;;;6.80;99.90;;;;;;20895929;28;19927;-78
2023/12/14 11:33:07;;;;;;;;;;;6.80;99.90;;;;;;20892943;28;19913;-78
2023/12/14 11:43:09;;;;;;;;;;;6.90;99.90;;;;;;20895361;28;19920;-77
2023/12/14 11:53:10;;;;;;;;;;;7.00;99.90;;;;;;20910881;28;20356;-77
2023/12/14 12:03:19;;;;;;;;;;;7.00;99.90;;;;;;20914611;28;19919;-78
2023/12/14 12:13:20;;;;;;;;;;;7.00;99.90;;;;;;20910477;28;19913;-77
2023/12/14 12:23:21;;;;;;;;;;;7.00;99.90;;;;;;20923206;28;19916;-78
2023/12/14 12:33:22;;;;;;;;;;;7.00;99.90;;;;;;20909825;28;19916;-78
2023/12/14 12:43:23;;;;;;;;;;;7.00;99.90;;;;;;20898903;28;19916;-77
2023/12/14 12:53:23;;;;;;;;;;;7.00;99.90;;;;;;20915523;28;20400;-77
2023/12/14 13:03:24;;;;;;;;;;;6.90;99.90;;;;;;20906118;28;19920;-77
2023/12/14 13:13:25;;;;;;;;;;;6.90;99.90;;;;;;20909085;28;19909;-78
2023/12/14 13:23:26;;;;;;;;;;;7.00;99.90;;;;;;20917077;28;19960;-78
2023/12/14 13:33:26;;;;;;;;;;;7.00;99.90;;;;;;20921222;28;20015;-78
2023/12/14 13:43:27;;;;;;;;;;;7.10;99.90;;;;;;20908170;28;19927;-77
2023/12/14 13:53:27;;;;;;;;;;;7.10;99.90;;;;;;20864826;28;19908;-77
2023/12/14 14:03:28;;;;;;;;;;;7.10;99.90;;;;;;20904985;28;19935;-77
2023/12/14 14:13:29;;;;;;;;;;;7.00;99.90;;;;;;20899790;28;19909;-77
2023/12/14 14:23:31;;;;;;;;;;;6.80;99.90;;;;;;20898887;28;20003;-78
2023/12/14 14:33:31;;;;;;;;;;;6.60;99.90;;;;;;20909356;28;19920;-77
2023/12/14 14:43:32;;;;;;;;;;;6.60;99.90;;;;;;20897864;28;19920;-78
2023/12/14 14:53:33;;;;;;;;;;;6.50;99.90;;;;;;20910693;28;19909;-78
2023/12/14 15:03:33;;;;;;;;;;;6.30;99.90;;;;;;20933397;28;19912;-77
2023/12/14 15:13:34;;;;;;;;;;;6.30;99.90;;;;;;20913802;28;19912;-78
2023/12/14 15:23:36;;;;;;;;;;;6.20;99.90;;;;;;20936179;28;19971;-79
2023/12/14 15:33:37;;;;;;;;;;;6.30;99.90;;;;;;20948254;28;20467;-79
2023/12/14 15:43:37;;;;;;;;;;;6.30;99.90;;;;;;20908563;28;19913;-78
2023/12/14 15:53:38;;;;;;;;;;;6.30;99.90;;;;;;20919641;28;19924;-78
2023/12/14 16:03:39;;;;;;;;;;;6.30;99.90;;;;;;20920384;28;19920;-77
2023/12/14 16:13:39;;;;;;;;;;;6.30;99.90;;;;;;20916138;28;20432;-78
2023/12/14 16:23:40;;;;;;;;;;;6.30;99.90;;;;;;20903753;28;19912;-79
2023/12/14 16:33:41;;;;;;;;;;;6.20;99.90;;;;;;20924621;28;19966;-78
2023/12/14 16:43:42;;;;;;;;;;;6.20;99.90;;;;;;20913143;28;19913;-78
2023/12/14 16:53:42;;;;;;;;;;;6.10;99.90;;;;;;20920634;28;19978;-78
2023/12/14 17:03:43;;;;;;;;;;;6.10;99.90;;;;;;20931506;28;20424;-78
2023/12/14 17:13:44;;;;;;;;;;;6.10;99.90;;;;;;20911504;28;19909;-77
2023/12/14 17:23:45;;;;;;;;;;;6.10;99.90;;;;;;20919764;28;19917;-78
2023/12/14 17:33:46;;;;;;;;;;;6.00;99.90;;;;;;20918216;28;19920;-77
2023/12/14 17:43:47;;;;;;;;;;;6.00;99.90;;;;;;20893299;28;19913;-78
2023/12/14 17:53:47;;;;;;;;;;;5.90;99.90;;;;;;20887919;28;19915;-77
2023/12/14 18:03:48;;;;;;;;;;;5.90;99.90;;;;;;20868706;28;19998;-76
2023/12/14 18:13:49;;;;;;;;;;;5.70;99.90;;;;;;20871419;28;19963;-79
2023/12/14 18:23:49;;;;;;;;;;;5.70;99.90;;;;;;20891036;28;19942;-79
2023/12/14 18:33:52;;;;;;;;;;;5.80;99.90;;;;;;20917051;28;19912;-78
2023/12/14 18:43:54;;;;;;;;;;;5.70;99.90;;;;;;20906016;28;19955;-79
2023/12/14 18:53:54;;;;;;;;;;;5.80;99.90;;;;;;20883153;28;19909;-77
2023/12/14 19:03:56;;;;;;;;;;;6.10;99.90;;;;;;20898094;28;20399;-78
2023/12/14 19:13:57;;;;;;;;;;;6.20;99.90;;;;;;20894217;28;19916;-78
2023/12/14 19:23:57;;;;;;;;;;;6.20;99.90;;;;;;20895119;28;20361;-77
2023/12/14 19:33:58;;;;;;;;;;;6.20;99.90;;;;;;20899546;28;20079;-78
2023/12/14 19:43:59;;;;;;;;;;;6.20;99.90;;;;;;20887794;28;20003;-77
2023/12/14 19:53:59;;;;;;;;;;;6.20;99.90;;;;;;20898491;28;19916;-77
2023/12/14 20:04:00;;;;;;;;;;;6.20;99.90;;;;;;20894988;28;19916;-77
2023/12/14 20:14:01;;;;;;;;;;;6.20;99.90;;;;;;20912890;28;19916;-77
2023/12/14 20:24:02;;;;;;;;;;;6.10;99.90;;;;;;20901192;28;19913;-76
2023/12/14 20:34:03;;;;;;;;;;;6.00;99.90;;;;;;20902349;28;19936;-77
2023/12/14 20:44:03;;;;;;;;;;;6.00;99.90;;;;;;20914504;28;19916;-77
2023/12/14 20:54:04;;;;;;;;;;;6.10;99.90;;;;;;20926780;28;19912;-78
2023/12/14 21:04:05;;;;;;;;;;;6.10;99.90;;;;;;20919175;28;20384;-75
2023/12/14 21:14:05;;;;;;;;;;;6.10;99.90;;;;;;20880527;28;19916;-76
2023/12/14 21:24:06;;;;;;;;;;;5.80;99.90;;;;;;20910261;28;20005;-75
2023/12/14 21:34:07;;;;;;;;;;;5.50;99.90;;;;;;20896984;28;19913;-76
2023/12/14 21:44:07;;;;;;;;;;;5.40;99.90;;;;;;20894954;28;20413;-75
2023/12/14 21:54:08;;;;;;;;;;;5.30;99.90;;;;;;20901958;28;19909;-76
2023/12/14 22:04:09;;;;;;;;;;;5.30;99.90;;;;;;20899402;28;19913;-76
2023/12/14 22:14:09;;;;;;;;;;;5.30;99.90;;;;;;20865648;28;19915;-75
2023/12/14 22:24:10;;;;;;;;;;;5.20;99.90;;;;;;20906766;28;19919;-76
2023/12/14 22:34:11;;;;;;;;;;;5.10;99.90;;;;;;20892598;28;19935;-77
2023/12/14 22:44:11;;;;;;;;;;;5.10;99.90;;;;;;20876956;28;19996;-76
2023/12/14 22:54:12;;;;;;;;;;;5.00;99.90;;;;;;20858959;28;19979;-77
2023/12/14 23:04:12;;;;;;;;;;;4.90;99.90;;;;;;20887115;28;20370;-77
2023/12/14 23:14:13;;;;;;;;;;;4.80;99.90;;;;;;20860661;28;19913;-75
2023/12/14 23:24:14;;;;;;;;;;;4.70;99.90;;;;;;20886109;28;20006;-76
2023/12/14 23:34:15;;;;;;;;;;;4.50;99.90;;;;;;20892369;28;19978;-76
2023/12/14 23:44:15;;;;;;;;;;;4.50;99.90;;;;;;20886183;28;19920;-76
2023/12/14 23:54:16;;;;;;;;;;;4.30;99.90;;;;;;20878366;28;19917;-76
